メインページ
METAR-TAF:

METAR-TAF

空港 :

ンジャメナ, チャド

ンジャメナ国際空港

緯度: 12-08N, 経度: 015-02E, 海抜: 295m

現時点の気象観測

当レポートは51分前の20:00(UTC)に作成
北西の風 4kt
気温 24°C
湿度 31%
気圧 1013 hPa
視程10km以上
1,500メートル以下は雲なし、積乱雲なし

METAR: FTTJ 112000Z 32004KT CAVOK 24/06 Q1013 NOSIG

時間: 21:51 (20:51 UTC)

予報

当レポートは3時間51分前の17:00(UTC)に作成
予報は11日の 18時(UTC)から 12日の 24時(UTC)まで有効
北/北西の風 6kt
視程10km以上
1,500メートル以下は雲なし、積乱雲なし
12日の 07時(UTC)から 12日の 12時(UTC)まで一時的に
東/北東の風 10kt

TAF: FTTJ 111700Z 1118/1224 33006KT CAVOK TEMPO 1207/1212 06010KT

4,000以上の空港の気象観測と天気予報(METAR報とTAF報)

利用可能な観測所は地図上に黄色い丸と赤い丸で示す。

丸の上にカーソルを重ねると観測所名を参照できる。

次にクリックすると気象観測と天気予報を参照できる。

マップの切り替え:黒色「×」印の緑ボタンをクリックして拡大、「-」印の緑ボタンをクリックして縮小、緑色の三角印をクリックして隣りの地図に切り替え


METAR-TAF: